createdAt,value
2023-03-07T00:02:28.981Z,23.25
2023-03-07T00:05:14.911Z,29.83
2023-03-07T00:08:00.214Z,24.60
2023-03-07T00:10:45.479Z,27.83
2023-03-07T00:13:32.295Z,25.90
2023-03-07T00:16:20.596Z,25.45
2023-03-07T00:19:08.056Z,25.55
2023-03-07T00:21:53.109Z,22.27
2023-03-07T00:24:38.578Z,23.35
2023-03-07T00:27:24.009Z,22.42
2023-03-07T00:30:12.382Z,21.02
2023-03-07T00:32:57.383Z,23.88
2023-03-07T00:35:42.759Z,20.05
2023-03-07T00:38:30.597Z,23.65
2023-03-07T00:41:19.394Z,22.10
2023-03-07T00:44:04.822Z,21.08
2023-03-07T00:46:50.146Z,26.85
2023-03-07T00:49:35.624Z,21.55
2023-03-07T00:52:20.934Z,22.83
2023-03-07T00:55:06.966Z,21.13
2023-03-07T00:57:52.336Z,21.45
2023-03-07T01:00:37.812Z,25.00
2023-03-07T01:03:24.401Z,23.00
2023-03-07T01:06:13.959Z,18.23
2023-03-07T01:09:01.360Z,23.90
2023-03-07T01:11:46.513Z,18.88
2023-03-07T01:14:31.845Z,24.30
2023-03-07T01:17:17.119Z,19.90
2023-03-07T01:20:07.054Z,20.48
2023-03-07T01:22:52.361Z,18.88
2023-03-07T01:25:40.741Z,20.23
2023-03-07T01:28:25.735Z,19.55
2023-03-07T01:31:11.354Z,15.02
2023-03-07T01:33:56.748Z,20.75
2023-03-07T01:36:41.932Z,26.15
2023-03-07T01:39:27.301Z,20.67
2023-03-07T01:42:12.775Z,21.50
2023-03-07T01:45:28.762Z,23.15
2023-03-07T01:48:14.309Z,20.63
2023-03-07T01:50:59.550Z,18.70
2023-03-07T01:53:46.600Z,20.17
2023-03-07T01:56:32.122Z,22.65
2023-03-07T01:59:22.413Z,23.63
2023-03-07T02:02:12.086Z,24.17
2023-03-07T02:05:15.715Z,23.88
2023-03-07T02:08:02.773Z,25.27
2023-03-07T02:10:49.141Z,28.50
2023-03-07T02:13:35.305Z,21.23
2023-03-07T02:16:20.724Z,27.42
2023-03-07T02:19:27.749Z,24.60
2023-03-07T02:22:17.859Z,26.42
2023-03-07T02:25:19.696Z,22.13
2023-03-07T02:28:05.851Z,25.38
2023-03-07T02:31:04.759Z,24.60
2023-03-07T02:33:49.949Z,21.00
2023-03-07T02:36:37.240Z,24.65
2023-03-07T02:39:24.015Z,22.67
2023-03-07T02:42:13.216Z,20.80
2023-03-07T02:45:04.974Z,28.80
2023-03-07T02:47:50.215Z,19.88
2023-03-07T02:50:36.118Z,23.75
2023-03-07T02:53:22.121Z,22.15
2023-03-07T02:56:07.659Z,24.73
2023-03-07T02:58:52.721Z,21.55
2023-03-07T03:01:38.451Z,28.67
2023-03-07T03:04:23.432Z,22.60
2023-03-07T03:07:08.748Z,24.83
2023-03-07T03:09:53.972Z,30.40
2023-03-07T03:12:39.410Z,26.52
2023-03-07T03:15:24.785Z,23.38
2023-03-07T03:18:10.080Z,27.23
2023-03-07T03:20:55.539Z,27.50
2023-03-07T03:23:40.982Z,26.77
2023-03-07T03:26:26.446Z,27.88
2023-03-07T03:29:11.724Z,27.70
2023-03-07T03:31:57.116Z,27.35
2023-03-07T03:34:42.427Z,29.10
2023-03-07T03:37:27.815Z,30.15
2023-03-07T03:40:17.430Z,30.75
2023-03-07T03:43:02.917Z,28.45
2023-03-07T03:45:58.401Z,28.30
2023-03-07T03:48:44.373Z,29.50
2023-03-07T03:51:29.948Z,31.52
2023-03-07T03:54:15.374Z,29.80
2023-03-07T03:57:01.026Z,27.60
2023-03-07T03:59:47.252Z,31.88
2023-03-07T04:02:33.320Z,27.48
2023-03-07T04:05:18.435Z,29.77
2023-03-07T04:08:03.863Z,36.63
2023-03-07T04:10:49.222Z,31.88
2023-03-07T04:13:35.970Z,30.70
2023-03-07T04:16:22.462Z,30.52
2023-03-07T04:19:12.796Z,29.92
2023-03-07T04:21:57.789Z,29.42
2023-03-07T04:24:43.234Z,34.22
2023-03-07T04:27:28.495Z,31.92
2023-03-07T04:30:13.902Z,34.88
2023-03-07T04:32:59.342Z,26.55
2023-03-07T04:35:46.036Z,31.73
2023-03-07T04:38:31.769Z,24.77
2023-03-07T04:41:20.527Z,36.38
2023-03-07T04:44:05.837Z,30.17
2023-03-07T04:46:51.333Z,27.48
2023-03-07T04:49:36.581Z,30.95
2023-03-07T04:52:22.164Z,29.15
2023-03-07T04:55:07.841Z,28.90
2023-03-07T04:57:52.953Z,29.98
2023-03-07T05:00:40.576Z,28.05
2023-03-07T05:03:28.230Z,28.60
2023-03-07T05:06:15.363Z,30.55
2023-03-07T05:09:00.636Z,22.38
2023-03-07T05:11:45.878Z,27.05
2023-03-07T05:14:31.357Z,25.45
2023-03-07T05:17:17.484Z,22.05
2023-03-07T05:20:04.013Z,24.55
2023-03-07T05:22:49.735Z,26.70
2023-03-07T05:25:34.994Z,29.10
2023-03-07T05:28:20.363Z,25.13
2023-03-07T05:31:06.099Z,27.48
2023-03-07T05:33:51.449Z,25.00
2023-03-07T05:36:37.069Z,26.42
2023-03-07T05:39:22.240Z,26.33
2023-03-07T05:42:07.577Z,26.02
2023-03-07T05:44:53.049Z,25.35
2023-03-07T05:47:38.985Z,24.77
2023-03-07T05:50:24.352Z,20.88
2023-03-07T05:53:09.726Z,28.40
2023-03-07T05:55:55.308Z,25.17
2023-03-07T05:58:40.790Z,22.50
2023-03-07T06:01:26.038Z,24.13
2023-03-07T06:04:11.672Z,20.05
2023-03-07T06:06:57.629Z,25.33
2023-03-07T06:09:42.844Z,25.60
2023-03-07T06:12:28.137Z,27.58
2023-03-07T06:15:13.461Z,22.75
2023-03-07T06:17:58.976Z,22.58
2023-03-07T06:20:44.362Z,24.40
2023-03-07T06:23:32.199Z,22.27
2023-03-07T06:26:17.414Z,24.02
2023-03-07T06:29:02.677Z,23.35
2023-03-07T06:31:48.420Z,24.80
2023-03-07T06:34:33.900Z,27.60
2023-03-07T06:37:19.367Z,25.42
2023-03-07T06:40:06.332Z,20.42
2023-03-07T06:42:53.449Z,21.02
2023-03-07T06:45:38.872Z,20.92
2023-03-07T06:48:24.552Z,25.17
2023-03-07T06:51:10.355Z,23.35
2023-03-07T06:53:55.708Z,21.75
2023-03-07T06:56:43.031Z,25.48
2023-03-07T06:59:29.373Z,24.58
2023-03-07T07:02:15.462Z,23.83
2023-03-07T07:05:01.371Z,25.77
2023-03-07T07:07:46.998Z,17.63
2023-03-07T07:10:32.481Z,19.70
2023-03-07T07:13:17.907Z,24.70
2023-03-07T07:16:05.761Z,21.58
2023-03-07T07:18:54.531Z,21.83
2023-03-07T07:21:39.666Z,23.27
2023-03-07T07:24:25.338Z,20.13
2023-03-07T07:27:12.560Z,17.80
2023-03-07T07:29:57.909Z,19.50
2023-03-07T07:32:45.020Z,22.02
2023-03-07T07:35:30.314Z,23.45
2023-03-07T07:38:15.844Z,20.42
2023-03-07T07:41:02.237Z,22.30
2023-03-07T07:43:48.339Z,17.80
2023-03-07T07:46:33.615Z,23.58
2023-03-07T07:49:19.026Z,18.25
2023-03-07T07:52:04.673Z,23.50
2023-03-07T07:54:50.178Z,20.80
2023-03-07T07:57:35.438Z,24.77
2023-03-07T08:00:21.469Z,23.27
2023-03-07T08:03:07.202Z,24.65
2023-03-07T08:05:52.782Z,29.67
2023-03-07T08:08:38.920Z,22.67
2023-03-07T08:11:24.366Z,20.67
2023-03-07T08:14:09.913Z,23.17
2023-03-07T08:16:55.047Z,23.85
2023-03-07T08:19:40.291Z,20.60
2023-03-07T08:22:25.668Z,23.15
2023-03-07T08:25:17.710Z,24.55
2023-03-07T08:28:05.252Z,23.15
2023-03-07T08:30:50.413Z,21.48
2023-03-07T08:33:37.502Z,25.17
2023-03-07T08:36:22.549Z,26.33
2023-03-07T08:39:08.020Z,23.77
2023-03-07T08:41:55.214Z,23.38
2023-03-07T08:44:40.686Z,24.45
2023-03-07T08:47:26.241Z,21.63
2023-03-07T08:50:12.119Z,21.20
2023-03-07T08:52:57.665Z,25.10
2023-03-07T08:55:43.572Z,20.00
2023-03-07T08:58:28.876Z,24.95
2023-03-07T09:01:14.312Z,24.10
2023-03-07T09:03:59.628Z,21.77
2023-03-07T09:06:45.001Z,20.33
2023-03-07T09:09:31.133Z,20.63
2023-03-07T09:12:16.554Z,22.60
2023-03-07T09:15:02.167Z,22.83
2023-03-07T09:17:47.505Z,24.92
2023-03-07T09:20:33.193Z,20.98
2023-03-07T09:23:18.467Z,20.48
2023-03-07T09:26:06.786Z,20.02
2023-03-07T09:28:51.938Z,19.58
2023-03-07T09:31:37.357Z,21.85
2023-03-07T09:34:22.635Z,19.67
2023-03-07T09:37:08.132Z,21.55
2023-03-07T09:39:53.375Z,21.10
2023-03-07T09:42:47.165Z,18.55
2023-03-07T09:45:37.766Z,20.13
2023-03-07T09:48:36.039Z,22.98
2023-03-07T09:51:25.974Z,20.50
2023-03-07T09:54:19.955Z,20.10
2023-03-07T09:57:12.410Z,21.00
2023-03-07T10:00:27.273Z,22.25
2023-03-07T10:03:38.877Z,19.02
2023-03-07T10:06:37.212Z,20.23
2023-03-07T10:09:24.818Z,18.98
2023-03-07T10:12:34.118Z,17.50
2023-03-07T10:15:58.686Z,20.95
2023-03-07T10:19:27.943Z,21.05
2023-03-07T10:22:28.690Z,18.77
2023-03-07T10:25:28.548Z,15.20
2023-03-07T10:28:22.791Z,17.33
2023-03-07T10:31:16.244Z,19.05
2023-03-07T10:34:22.561Z,15.00
2023-03-07T10:37:17.801Z,13.48
2023-03-07T10:40:04.999Z,16.48
2023-03-07T10:42:50.631Z,14.38
2023-03-07T10:45:37.894Z,15.98
2023-03-07T10:48:25.342Z,14.35
2023-03-07T10:51:41.652Z,15.65
2023-03-07T10:54:37.317Z,15.07
2023-03-07T10:57:28.859Z,15.15
2023-03-07T11:00:19.236Z,15.97
2023-03-07T11:03:05.079Z,19.40
2023-03-07T11:05:50.574Z,14.05
2023-03-07T11:08:36.339Z,16.48
2023-03-07T11:11:31.015Z,14.93
2023-03-07T11:14:18.794Z,14.55
2023-03-07T11:17:17.114Z,11.95
2023-03-07T11:20:05.134Z,10.98
2023-03-07T11:23:11.459Z,12.75
2023-03-07T11:26:23.604Z,15.85
2023-03-07T11:29:14.147Z,11.30
2023-03-07T11:32:22.278Z,13.00
2023-03-07T11:35:15.429Z,11.57
2023-03-07T11:38:09.873Z,14.05
2023-03-07T11:41:11.311Z,13.38
2023-03-07T11:44:17.873Z,12.43
2023-03-07T11:47:29.082Z,15.85
2023-03-07T11:50:28.776Z,9.80
2023-03-07T11:53:14.117Z,13.32
2023-03-07T11:56:08.447Z,12.98
2023-03-07T11:59:17.947Z,14.57
2023-03-07T12:02:12.653Z,12.38
2023-03-07T12:05:27.326Z,8.85
2023-03-07T12:08:29.137Z,12.50
2023-03-07T12:11:29.644Z,12.45
2023-03-07T12:14:36.508Z,7.85
2023-03-07T12:18:10.295Z,7.90
2023-03-07T12:21:22.153Z,9.65
2023-03-07T12:24:19.521Z,11.95
2023-03-07T12:27:26.782Z,8.00
2023-03-07T12:30:30.589Z,8.32
2023-03-07T12:33:42.869Z,8.48
2023-03-07T12:36:53.597Z,11.82
2023-03-07T12:39:52.715Z,9.85
2023-03-07T12:42:53.496Z,9.77
2023-03-07T12:45:48.918Z,11.07
2023-03-07T12:48:49.906Z,11.88
2023-03-07T12:51:43.309Z,8.95
2023-03-07T12:54:35.012Z,9.07
2023-03-07T12:57:28.388Z,9.38
2023-03-07T13:00:17.670Z,10.93
2023-03-07T13:03:06.544Z,7.68
2023-03-07T13:05:51.958Z,8.18
2023-03-07T13:08:39.180Z,7.60
2023-03-07T13:11:27.933Z,8.43
2023-03-07T13:14:39.956Z,7.53
2023-03-07T13:17:31.635Z,7.63
2023-03-07T13:20:19.777Z,10.52
2023-03-07T13:23:33.450Z,8.38
2023-03-07T13:26:24.188Z,6.47
2023-03-07T13:29:09.900Z,7.13
2023-03-07T13:31:55.018Z,9.60
2023-03-07T13:34:47.540Z,5.38
2023-03-07T13:38:13.161Z,8.00
2023-03-07T13:41:04.536Z,7.05
2023-03-07T13:43:52.423Z,7.53
2023-03-07T13:46:43.795Z,6.18
2023-03-07T13:49:37.932Z,8.90
2023-03-07T13:52:36.227Z,9.35
2023-03-07T13:55:24.062Z,6.13
2023-03-07T13:58:36.053Z,8.43
2023-03-07T14:01:35.615Z,9.35
2023-03-07T14:04:45.058Z,8.63
2023-03-07T14:07:39.758Z,7.90
2023-03-07T14:10:30.477Z,7.80
2023-03-07T14:13:41.589Z,9.27
2023-03-07T14:16:32.652Z,7.70
2023-03-07T14:19:41.252Z,8.43
2023-03-07T14:22:53.039Z,6.97
2023-03-07T14:25:41.601Z,8.57
2023-03-07T14:28:28.560Z,7.53
2023-03-07T14:31:30.695Z,5.55
2023-03-07T14:34:22.065Z,7.97
2023-03-07T14:37:13.522Z,6.85
2023-03-07T14:40:03.988Z,11.35
2023-03-07T14:43:17.418Z,8.23
2023-03-07T14:46:28.368Z,6.28
2023-03-07T14:49:32.377Z,8.23
2023-03-07T14:52:30.425Z,9.43
2023-03-07T14:55:20.873Z,8.18
2023-03-07T14:58:07.261Z,6.78
2023-03-07T15:00:59.969Z,8.15
2023-03-07T15:03:47.699Z,6.85
2023-03-07T15:06:42.781Z,9.05
2023-03-07T15:09:29.578Z,8.02
2023-03-07T15:12:26.132Z,7.13
2023-03-07T15:15:30.105Z,8.02
2023-03-07T15:18:31.532Z,6.43
2023-03-07T15:21:20.780Z,9.63
2023-03-07T15:24:06.442Z,12.82
2023-03-07T15:26:55.309Z,8.77
2023-03-07T15:29:47.046Z,6.40
2023-03-07T15:32:40.636Z,7.85
2023-03-07T15:35:27.078Z,7.45
2023-03-07T15:38:19.072Z,10.23
2023-03-07T15:41:33.417Z,9.63
2023-03-07T15:44:19.782Z,8.73
2023-03-07T15:47:16.827Z,7.63
2023-03-07T15:50:07.057Z,8.60
2023-03-07T15:52:54.910Z,9.32
2023-03-07T15:55:55.067Z,6.80
2023-03-07T15:58:45.108Z,11.50
2023-03-07T16:01:30.645Z,10.82
2023-03-07T16:04:34.756Z,8.95
2023-03-07T16:07:19.896Z,9.57
2023-03-07T16:10:05.590Z,9.02
2023-03-07T16:12:50.809Z,10.32
2023-03-07T16:15:36.237Z,9.77
2023-03-07T16:18:26.850Z,7.70
2023-03-07T16:21:16.750Z,8.35
2023-03-07T16:24:01.880Z,9.52
2023-03-07T16:26:47.987Z,9.10
2023-03-07T16:29:33.031Z,11.30
2023-03-07T16:32:20.986Z,7.60
2023-03-07T16:35:19.828Z,7.82
2023-03-07T16:38:05.230Z,9.50
2023-03-07T16:40:50.694Z,10.40
2023-03-07T16:43:39.574Z,9.00
2023-03-07T16:46:26.242Z,9.88
2023-03-07T16:49:18.088Z,10.98
2023-03-07T16:52:06.390Z,10.00
2023-03-07T16:54:51.882Z,11.57
2023-03-07T16:57:37.401Z,11.35
2023-03-07T17:00:25.628Z,18.35
2023-03-07T17:03:11.118Z,9.40
2023-03-07T17:05:56.680Z,10.82
2023-03-07T17:08:42.670Z,8.70
2023-03-07T17:11:31.266Z,8.75
2023-03-07T17:14:18.276Z,10.48
2023-03-07T17:17:04.409Z,11.20
2023-03-07T17:19:49.517Z,8.15
2023-03-07T17:22:35.302Z,9.80
2023-03-07T17:25:21.354Z,11.43
2023-03-07T17:28:11.924Z,11.60
2023-03-07T17:30:57.407Z,11.88
2023-03-07T17:33:42.864Z,10.60
2023-03-07T17:36:28.197Z,10.38
2023-03-07T17:39:13.723Z,11.10
2023-03-07T17:41:59.558Z,9.68
2023-03-07T17:44:44.943Z,8.45
2023-03-07T17:47:31.156Z,11.07
2023-03-07T17:50:16.645Z,8.65
2023-03-07T17:53:02.089Z,12.93
2023-03-07T17:55:47.508Z,8.35
2023-03-07T17:58:32.823Z,11.95
2023-03-07T18:01:18.452Z,12.23
2023-03-07T18:04:06.745Z,12.70
2023-03-07T18:06:51.880Z,10.75
2023-03-07T18:09:37.387Z,11.65
2023-03-07T18:12:22.724Z,10.18
2023-03-07T18:15:13.212Z,10.05
2023-03-07T18:17:59.009Z,11.70
2023-03-07T18:20:44.064Z,10.30
2023-03-07T18:23:29.566Z,11.57
2023-03-07T18:26:15.570Z,13.10
2023-03-07T18:29:00.897Z,14.40
2023-03-07T18:31:46.545Z,12.70
2023-03-07T18:34:31.826Z,15.57
2023-03-07T18:37:17.937Z,9.88
2023-03-07T18:40:04.627Z,11.57
2023-03-07T18:42:49.801Z,10.40
2023-03-07T18:45:35.035Z,10.88
2023-03-07T18:48:20.367Z,11.70
2023-03-07T18:51:10.736Z,9.63
2023-03-07T18:54:01.014Z,11.43
2023-03-07T18:56:47.341Z,11.27
2023-03-07T18:59:32.341Z,12.77
2023-03-07T19:02:17.858Z,9.85
2023-03-07T19:05:03.018Z,13.27
2023-03-07T19:07:48.572Z,10.07
2023-03-07T19:10:35.405Z,11.93
2023-03-07T19:13:20.626Z,9.82
2023-03-07T19:16:14.672Z,13.13
2023-03-07T19:19:00.084Z,11.48
2023-03-07T19:21:45.485Z,16.90
2023-03-07T19:24:30.898Z,12.30
2023-03-07T19:27:16.402Z,10.52
2023-03-07T19:30:01.793Z,12.55
2023-03-07T19:32:47.495Z,10.18
2023-03-07T19:35:32.813Z,13.18
2023-03-07T19:38:18.053Z,9.57
2023-03-07T19:41:05.306Z,11.85
2023-03-07T19:43:50.834Z,11.30
2023-03-07T19:46:35.882Z,13.35
2023-03-07T19:49:23.227Z,11.23
2023-03-07T19:52:08.328Z,11.02
2023-03-07T19:54:54.027Z,12.68
2023-03-07T19:57:39.354Z,14.43
2023-03-07T20:00:24.789Z,10.57
2023-03-07T20:03:14.867Z,9.85
2023-03-07T20:06:02.254Z,13.60
2023-03-07T20:08:48.661Z,11.32
2023-03-07T20:11:35.638Z,13.77
2023-03-07T20:14:20.737Z,13.20
2023-03-07T20:17:06.670Z,14.43
2023-03-07T20:19:52.493Z,9.20
2023-03-07T20:22:38.729Z,11.90
2023-03-07T20:25:27.798Z,9.85
2023-03-07T20:28:13.368Z,10.10
2023-03-07T20:30:58.606Z,9.50
2023-03-07T20:33:45.863Z,10.10
2023-03-07T20:36:33.161Z,11.32
2023-03-07T20:39:18.383Z,10.85
2023-03-07T20:42:03.718Z,11.85
2023-03-07T20:44:49.061Z,9.70
2023-03-07T20:47:38.079Z,9.55
2023-03-07T20:50:23.498Z,12.07
2023-03-07T20:53:08.923Z,10.38
2023-03-07T20:55:54.265Z,10.32
2023-03-07T20:58:40.167Z,12.93
2023-03-07T21:01:27.669Z,9.77
2023-03-07T21:04:15.212Z,11.30
2023-03-07T21:07:00.423Z,12.25
2023-03-07T21:09:50.818Z,11.43
2023-03-07T21:12:36.184Z,12.63
2023-03-07T21:15:21.658Z,11.02
2023-03-07T21:18:06.881Z,13.73
2023-03-07T21:20:52.711Z,8.63
2023-03-07T21:23:38.662Z,11.20
2023-03-07T21:26:26.667Z,11.77
2023-03-07T21:29:13.720Z,11.40
2023-03-07T21:31:58.928Z,13.30
2023-03-07T21:34:44.184Z,10.45
2023-03-07T21:37:29.665Z,9.85
2023-03-07T21:40:15.090Z,15.07
2023-03-07T21:43:00.531Z,11.13
2023-03-07T21:45:45.989Z,10.50
2023-03-07T21:48:32.406Z,10.90
2023-03-07T21:51:18.806Z,11.65
2023-03-07T21:54:04.394Z,10.68
2023-03-07T21:56:49.896Z,11.98
2023-03-07T21:59:35.844Z,14.48
2023-03-07T22:02:22.928Z,15.55
2023-03-07T22:05:08.485Z,9.63
2023-03-07T22:07:53.586Z,15.23
2023-03-07T22:10:39.170Z,12.88
2023-03-07T22:13:24.416Z,10.55
2023-03-07T22:16:15.681Z,11.70
2023-03-07T22:19:01.149Z,11.00
2023-03-07T22:21:46.613Z,10.18
2023-03-07T22:24:36.065Z,11.63
2023-03-07T22:27:22.557Z,11.45
2023-03-07T22:30:09.630Z,11.70
2023-03-07T22:32:54.877Z,11.68
2023-03-07T22:35:40.180Z,9.70
2023-03-07T22:38:26.015Z,12.63
2023-03-07T22:41:16.578Z,10.18
2023-03-07T22:44:02.098Z,10.88
2023-03-07T22:46:50.385Z,9.88
2023-03-07T22:49:35.761Z,11.93
2023-03-07T22:52:20.771Z,12.75
2023-03-07T22:55:06.349Z,12.70
2023-03-07T22:57:51.642Z,11.23
2023-03-07T23:00:39.605Z,12.73
2023-03-07T23:03:24.909Z,12.15
2023-03-07T23:06:10.497Z,12.20
2023-03-07T23:08:57.157Z,14.23
2023-03-07T23:11:45.006Z,10.57
2023-03-07T23:14:30.557Z,11.63
2023-03-07T23:17:16.330Z,8.95
2023-03-07T23:20:01.706Z,11.13
2023-03-07T23:22:47.258Z,13.63
2023-03-07T23:25:33.124Z,10.88
2023-03-07T23:28:18.330Z,11.50
2023-03-07T23:31:04.118Z,11.15
2023-03-07T23:33:50.012Z,10.90
2023-03-07T23:36:35.663Z,14.00
2023-03-07T23:39:21.053Z,14.23
2023-03-07T23:42:06.373Z,10.05
2023-03-07T23:44:51.868Z,12.27
2023-03-07T23:47:37.331Z,10.85
2023-03-07T23:50:23.257Z,10.98
2023-03-07T23:53:08.587Z,11.50
2023-03-07T23:55:53.944Z,9.18
2023-03-07T23:58:39.608Z,11.23
